CLTO2: Kiamichi River Near Clayton, OK

Data processed at Mon May 02 23:39:04 2016 Central Daylight Time


All information presented herein is the property of the government of the United States of America and may be revised or deleted at any time without prior notice.
Dissemination of this information without the expressed written consent of the Public Affairs Office, Tulsa District U.S. Army Corps of Engineers is strictly prohibited.
These data are gathered electronically and, as presented, have not undergone any form of quality control. These data are not guaranteed to be valid or correct.
Go to home page.
Go to station list.
Go to station map.

Upstream stations:

Downstream station: Previous Day
Next Day
Current Day

Display graphics.
Display DCP transmissions.


    
    SHEF ID:       CLTO2     Kiamichi River Near Clayton, OK
    STATION TYPE:  STREAM GAGE
    Regulation Limits:  Stage =   15.00, Flow =   15796
    
                   PRECIP     STAGE  RIV-FLOW   VOLTAGE
                   INCHES      FEET       CFS     VOLTS
                     GOES      GOES      GOES      GOES
       (Cen)
    05/02 01:00      0.00      7.05      2837     12.33
    05/02 02:00      0.02      6.97      2732     12.25
    05/02 03:00      0.02      6.93      2681     12.41
    05/02 04:00      0.00      6.88      2617     12.33
    05/02 05:00      0.00      6.83      2552     12.33
    05/02 06:00      0.00      6.78      2487     12.17
    05/02 07:00      0.00      6.74      2437     12.41
    05/02 08:00      0.00      6.70      2386     12.41
    05/02 09:00      0.00      6.66      2337     12.97
    05/02 10:00      0.00      6.78      2487     13.29
    05/02 11:00      0.00      6.98      2745     13.44
    05/02 12:00      0.00      7.16      2984     13.76
    05/02 13:00      0.00      7.38      3296     14.24
    05/02 14:00      0.00      7.47      3424     14.24
    05/02 15:00      0.00      7.62      3637     14.24
    05/02 16:00      0.00      7.82      3927     14.32
    05/02 17:00      0.00      7.87      4001     13.44
    05/02 18:00      0.00      7.92      4075     13.37
    05/02 19:00      0.00      8.09      4322     13.29
    05/02 20:00      0.00      8.26      4579     12.89
    05/02 21:00      0.00      8.28      4610     12.57
    05/02 22:00      0.00      8.30      4641     12.41
    05/02 23:00      0.00      8.31      4657     12.41
    05/03 00:00      ----      ----      ----      ----